CheckWX is a tool to help pilots better visualize weather data.  It is not intended as a substitute for an official pre-flight weather briefing.

09:51:03 UTC

KFSI METAR
Henry Post AAF (Fort Sill) Airport
Fort Sill, Oklahoma, USA
Current

55 mins ago

KFSI 310856Z AUTO 13003KT 10SM CLR 17/14 A3013 RMK AO2 SLP196 T01680141 57005 $
Observed
May-31 @ 08:56 UTC
Wind
  • 130° at 3 KTS
Visibility
Flight Rules
VFR
Cloud Levels
  • Clear skies
Temperature
17°C / 63°F
Dewpoint
14°C / 57°F
Humidity
83%
Altimeter
30.13" Hg
Pressure
1020.32 hPa
Previous

2 hours ago

KFSI 310756Z AUTO 00000KT 10SM CLR 18/15 A3014 RMK AO2 SLP199 T01750149 $
Observed
May-31 @ 07:56 UTC
Visibility
Flight Rules
VFR
Cloud Levels
  • Clear skies
Temperature
18°C / 64°F
Dewpoint
15°C / 59°F
Humidity
83%
Altimeter
30.14" Hg
Pressure
1020.62 hPa
Previous

3 hours ago

KFSI 310656Z AUTO 00000KT 10SM CLR 17/15 A3014 RMK AO2 SLP200 T01690149 $
Observed
May-31 @ 06:56 UTC
Visibility
Flight Rules
VFR
Cloud Levels
  • Clear skies
Temperature
17°C / 63°F
Dewpoint
15°C / 59°F
Humidity
88%
Altimeter
30.14" Hg
Pressure
1020.62 hPa